Wan Hai 510 — 9VJJ8 — position and weather

sailwx.info

Track history (hours):
 
Tides and Currents Weather Stations Pressure Air Temp Water Temp Dewpoint Dewpoint Depression Visibility Wind Speed Wind Dir Waves Ship Positions

Wan Hai 510

Last reported at 2015-Sep-02 08:33 UTC. Time now 2015-Sep-03 17:13 UTC.
Position N 01°15' E 104°02'.

Length 269 m; draft 9.7 m.

Type: Cargo ship. MMSI: 565741000.

Date/timePositionNaut miles runAvg speedWind from/ knotsBaromVisibWave heightAir tempDewpointWater temp
2015-Sep-02 08:33N 01°15' E 104°02'1111.1
2015-Sep-02 07:32N 01°16' E 103°51'0 0.1
2015-Sep-02 06:32N 01°16' E 103°51'0 0.0
2015-Sep-02 05:29N 01°16' E 103°51'0 0.0
2015-Sep-02 04:32N 01°16' E 103°51'0 0.0
2015-Sep-02 03:29N 01°16' E 103°51'0 0.0
2015-Sep-02 02:32N 01°16' E 103°51'0 0.0
2015-Sep-02 01:29N 01°16' E 103°51'0 0.0
2015-Sep-02 00:28N 01°16' E 103°51'0 0.0
2015-Sep-01 23:29N 01°16' E 103°51'0 0.0
2015-Sep-01 22:28N 01°16' E 103°51'0 0.0
2015-Sep-01 21:32N 01°16' E 103°51'0 0.0
2015-Sep-01 20:29N 01°16' E 103°51'0 0.0
2015-Sep-01 19:28N 01°16' E 103°51'0 0.0
2015-Sep-01 18:29N 01°16' E 103°51'0 0.0
2015-Sep-01 17:31N 01°16' E 103°51'0 0.0
2015-Sep-01 16:29N 01°16' E 103°51'1 0.9
2015-Sep-01 15:33N 01°15' E 103°51'6 5.6
2015-Sep-01 14:33N 01°10' E 103°49'1612.3
2015-Sep-01 13:13N 01°06' E 103°34'14117.8
2015-Sep-01 05:18N 02°25' E 101°37'2318.6
2015-Sep-01 04:05N 02°38' E 101°18'916.7
2015-Sep-01 03:34N 02°45' E 101°13'5 2.5
2015-Sep-01 01:33N 02°50' E 101°13'0 0.0
2015-Sep-01 00:33N 02°50' E 101°13'0 0.1
2015-Aug-31 19:30N 02°50' E 101°13'0 0.0
2015-Aug-31 18:33N 02°50' E 101°13'8 3.9
2015-Aug-31 16:33N 02°57' E 101°18'6 6.4
2015-Aug-31 15:34N 03°02' E 101°21'0 0.0
2015-Aug-31 13:33N 03°02' E 101°21'0 0.0
2015-Aug-31 11:33N 03°02' E 101°21'0 0.0
2015-Aug-31 10:18N 03°02' E 101°21'0 0.0
2015-Aug-31 09:27N 03°02' E 101°21'0 0.0
2015-Aug-31 07:33N 03°02' E 101°21'0 0.0
2015-Aug-31 06:30N 03°02' E 101°21'0 0.0
2015-Aug-31 04:33N 03°02' E 101°21'0 0.0
2015-Aug-31 03:33N 03°02' E 101°21'0 0.0
2015-Aug-31 01:31N 03°02' E 101°21'0 0.0
2015-Aug-31 00:31N 03°02' E 101°21'1 0.5
2015-Aug-30 22:33N 03°03' E 101°21'1413.5
2015-Aug-30 21:33N 03°13' E 101°12'4020.3
2015-Aug-30 19:33N 03°34' E 100°37'  
Track history (hours):
 
Tides and Currents Weather Stations Pressure Air Temp Water Temp Dewpoint Dewpoint Depression Visibility Wind Speed Wind Dir Waves Ship Positions

Wan Hai 510

Last reported at 2015-Sep-02 08:33 UTC. Time now 2015-Sep-03 17:13 UTC.
Position N 01°15' E 104°02'.

Length 269 m; draft 9.7 m.

Type: Cargo ship. MMSI: 565741000.

Date/timePositionNaut miles runAvg speedWind from/ knotsBaromVisibWave heightAir tempDewpointWater temp
2015-Sep-02 08:33N 01°15' E 104°02'1111.1
2015-Sep-02 07:32N 01°16' E 103°51'0 0.1
2015-Sep-02 06:32N 01°16' E 103°51'0 0.0
2015-Sep-02 05:29N 01°16' E 103°51'0 0.0
2015-Sep-02 04:32N 01°16' E 103°51'0 0.0
2015-Sep-02 03:29N 01°16' E 103°51'0 0.0
2015-Sep-02 02:32N 01°16' E 103°51'0 0.0
2015-Sep-02 01:29N 01°16' E 103°51'0 0.0
2015-Sep-02 00:28N 01°16' E 103°51'0 0.0
2015-Sep-01 23:29N 01°16' E 103°51'0 0.0
2015-Sep-01 22:28N 01°16' E 103°51'0 0.0
2015-Sep-01 21:32N 01°16' E 103°51'0 0.0
2015-Sep-01 20:29N 01°16' E 103°51'0 0.0
2015-Sep-01 19:28N 01°16' E 103°51'0 0.0
2015-Sep-01 18:29N 01°16' E 103°51'0 0.0
2015-Sep-01 17:31N 01°16' E 103°51'0 0.0
2015-Sep-01 16:29N 01°16' E 103°51'1 0.9
2015-Sep-01 15:33N 01°15' E 103°51'6 5.6
2015-Sep-01 14:33N 01°10' E 103°49'1612.3
2015-Sep-01 13:13N 01°06' E 103°34'14117.8
2015-Sep-01 05:18N 02°25' E 101°37'2318.6
2015-Sep-01 04:05N 02°38' E 101°18'916.7
2015-Sep-01 03:34N 02°45' E 101°13'5 2.5
2015-Sep-01 01:33N 02°50' E 101°13'0 0.0
2015-Sep-01 00:33N 02°50' E 101°13'0 0.1
2015-Aug-31 19:30N 02°50' E 101°13'0 0.0
2015-Aug-31 18:33N 02°50' E 101°13'8 3.9
2015-Aug-31 16:33N 02°57' E 101°18'6 6.4
2015-Aug-31 15:34N 03°02' E 101°21'0 0.0
2015-Aug-31 13:33N 03°02' E 101°21'0 0.0
2015-Aug-31 11:33N 03°02' E 101°21'0 0.0
2015-Aug-31 10:18N 03°02' E 101°21'0 0.0
2015-Aug-31 09:27N 03°02' E 101°21'0 0.0
2015-Aug-31 07:33N 03°02' E 101°21'0 0.0
2015-Aug-31 06:30N 03°02' E 101°21'0 0.0
2015-Aug-31 04:33N 03°02' E 101°21'0 0.0
2015-Aug-31 03:33N 03°02' E 101°21'0 0.0
2015-Aug-31 01:31N 03°02' E 101°21'0 0.0
2015-Aug-31 00:31N 03°02' E 101°21'1 0.5
2015-Aug-30 22:33N 03°03' E 101°21'1413.5
2015-Aug-30 21:33N 03°13' E 101°12'4020.3
2015-Aug-30 19:33N 03°34' E 100°37'  

Dump ship's entire track history